RJOM

Details ICAO RJOM (MYJ)
Name MATSUYAMA
Region Japan
Timezone Asia/Tokyo (UTC+9.0)
Plans Departing 33
Arriving 40
Stats Elevation 25 ft / 8 m (AMSL)
Location 33.827257° 132.699631°
Runways 1
Magnetic Variation 7.545° W
Sunrise 2018-05-21 20:05:26 UTC / 2018-05-22 05:05:26 Local
Sunset 2018-05-22 10:09:05 UTC / 2018-05-22 19:09:05 Local
Advertisement - Login to hide

Runways

ID Width Length Bearing (true) Bearing (mag) Surface Threshold Offset Overrun Length
14 150 ft / 46 m 8,203 ft / 2,500 m 130.67° 138.21° Asphalt 0 ft / 0 m 206 ft / 63 m
32 150 ft / 46 m 8,203 ft / 2,500 m 310.68° 318.22° Asphalt 0 ft / 0 m 195 ft / 59 m

Map

Weather


0- 5 10 15 20 25 30 35+ Temperature / ° C

Clouds and Precipitation
Forecast for 2018-05-21 18:00 UTC. Updated 20 minutes ago

Ground ~20,000 ft ~40,000 ft Winds

METAR

Not found

TAF

TAF RJOM 211106Z 2112/2218 36005KT 9999 FEW030

Frequencies

Recorded 126.65 MHz ATIS
Tower 118.35 MHz TWR
Tower 126.20 MHz TWR
Approach 128.00 MHz IWAKUNI APP
Warning: Do not use this data for real-world aviation or navigation. No guarantee of current accuracy is given.